Aviation Digital Data Service (ADDS)

Output produced by METARs form (1552 UTC 30 August 2015)
found at http://aviationweather.gov/adds/metars/
 
KPIT 301503Z 3015/3118 15004KT P6SM BKN100 
     FM301900 24008KT P6SM BKN050 
     FM310900 VRB02KT 5SM BR SCT050